sensor_id;sensor_type;location;lat;lon;timestamp;P1;durP1;ratioP1;P2;durP2;ratioP2
43628;SDS011;56545;48.224;11.678;2023-06-14T00:00:14;6.78;;;3.15;;
43628;SDS011;56545;48.224;11.678;2023-06-14T00:02:41;5.95;;;3.20;;
43628;SDS011;56545;48.224;11.678;2023-06-14T00:05:07;5.47;;;2.85;;
43628;SDS011;56545;48.224;11.678;2023-06-14T00:07:37;6.47;;;2.95;;
43628;SDS011;56545;48.224;11.678;2023-06-14T00:10:07;5.32;;;2.75;;
43628;SDS011;56545;48.224;11.678;2023-06-14T00:12:34;5.95;;;3.08;;
43628;SDS011;56545;48.224;11.678;2023-06-14T00:15:01;7.63;;;3.00;;
43628;SDS011;56545;48.224;11.678;2023-06-14T00:17:28;6.10;;;3.00;;
43628;SDS011;56545;48.224;11.678;2023-06-14T00:19:59;6.15;;;3.00;;
43628;SDS011;56545;48.224;11.678;2023-06-14T00:22:30;10.00;;;3.20;;
43628;SDS011;56545;48.224;11.678;2023-06-14T00:24:56;5.95;;;2.83;;
43628;SDS011;56545;48.224;11.678;2023-06-14T00:27:22;7.85;;;3.08;;
43628;SDS011;56545;48.224;11.678;2023-06-14T00:29:49;7.10;;;3.10;;
43628;SDS011;56545;48.224;11.678;2023-06-14T00:32:15;5.63;;;3.00;;
43628;SDS011;56545;48.224;11.678;2023-06-14T00:34:41;6.07;;;3.25;;
43628;SDS011;56545;48.224;11.678;2023-06-14T00:37:07;5.97;;;3.00;;
43628;SDS011;56545;48.224;11.678;2023-06-14T00:39:33;7.45;;;2.95;;
43628;SDS011;56545;48.224;11.678;2023-06-14T00:41:59;5.68;;;3.30;;
43628;SDS011;56545;48.224;11.678;2023-06-14T00:44:25;8.48;;;2.90;;
43628;SDS011;56545;48.224;11.678;2023-06-14T00:46:51;5.78;;;2.95;;
43628;SDS011;56545;48.224;11.678;2023-06-14T00:49:17;6.63;;;3.33;;
43628;SDS011;56545;48.224;11.678;2023-06-14T00:51:44;6.97;;;2.95;;
43628;SDS011;56545;48.224;11.678;2023-06-14T00:54:11;7.15;;;3.10;;
43628;SDS011;56545;48.224;11.678;2023-06-14T00:56:37;6.70;;;3.00;;
43628;SDS011;56545;48.224;11.678;2023-06-14T00:59:03;8.43;;;3.58;;
43628;SDS011;56545;48.224;11.678;2023-06-14T01:01:32;6.45;;;2.95;;
43628;SDS011;56545;48.224;11.678;2023-06-14T01:03:59;6.80;;;3.05;;
43628;SDS011;56545;48.224;11.678;2023-06-14T01:12:08;5.75;;;3.15;;
43628;SDS011;56545;48.224;11.678;2023-06-14T01:14:42;6.50;;;3.17;;
43628;SDS011;56545;48.224;11.678;2023-06-14T01:17:08;7.78;;;3.60;;
43628;SDS011;56545;48.224;11.678;2023-06-14T01:22:08;7.25;;;3.35;;
43628;SDS011;56545;48.224;11.678;2023-06-14T01:24:34;7.65;;;3.50;;
43628;SDS011;56545;48.224;11.678;2023-06-14T01:27:00;7.30;;;3.15;;
43628;SDS011;56545;48.224;11.678;2023-06-14T01:29:27;6.47;;;3.17;;
43628;SDS011;56545;48.224;11.678;2023-06-14T01:31:58;9.05;;;3.50;;
43628;SDS011;56545;48.224;11.678;2023-06-14T01:34:25;6.05;;;3.05;;
43628;SDS011;56545;48.224;11.678;2023-06-14T01:36:51;6.32;;;3.38;;
43628;SDS011;56545;48.224;11.678;2023-06-14T01:39:19;5.70;;;3.47;;
43628;SDS011;56545;48.224;11.678;2023-06-14T01:41:46;7.40;;;3.30;;
43628;SDS011;56545;48.224;11.678;2023-06-14T01:44:14;5.97;;;3.20;;
43628;SDS011;56545;48.224;11.678;2023-06-14T01:46:41;7.55;;;3.53;;
43628;SDS011;56545;48.224;11.678;2023-06-14T01:49:08;7.00;;;3.40;;
43628;SDS011;56545;48.224;11.678;2023-06-14T01:51:34;6.78;;;3.50;;
43628;SDS011;56545;48.224;11.678;2023-06-14T01:54:00;6.00;;;3.45;;
43628;SDS011;56545;48.224;11.678;2023-06-14T01:56:26;5.80;;;3.20;;
43628;SDS011;56545;48.224;11.678;2023-06-14T01:58:52;7.25;;;3.25;;
43628;SDS011;56545;48.224;11.678;2023-06-14T02:01:18;5.72;;;3.33;;
43628;SDS011;56545;48.224;11.678;2023-06-14T02:03:46;5.65;;;3.22;;
43628;SDS011;56545;48.224;11.678;2023-06-14T02:06:13;6.50;;;3.30;;
43628;SDS011;56545;48.224;11.678;2023-06-14T02:08:40;6.50;;;3.40;;
43628;SDS011;56545;48.224;11.678;2023-06-14T02:11:07;6.85;;;3.78;;
43628;SDS011;56545;48.224;11.678;2023-06-14T02:13:33;7.95;;;3.38;;
43628;SDS011;56545;48.224;11.678;2023-06-14T02:15:59;7.43;;;3.83;;
43628;SDS011;56545;48.224;11.678;2023-06-14T02:18:25;8.43;;;4.47;;
43628;SDS011;56545;48.224;11.678;2023-06-14T02:20:52;9.63;;;4.95;;
43628;SDS011;56545;48.224;11.678;2023-06-14T02:23:18;9.85;;;4.80;;
43628;SDS011;56545;48.224;11.678;2023-06-14T02:25:44;11.73;;;5.47;;
43628;SDS011;56545;48.224;11.678;2023-06-14T02:28:11;10.07;;;5.57;;
43628;SDS011;56545;48.224;11.678;2023-06-14T02:30:37;9.65;;;5.15;;
43628;SDS011;56545;48.224;11.678;2023-06-14T02:33:03;11.30;;;5.30;;
43628;SDS011;56545;48.224;11.678;2023-06-14T02:35:30;9.63;;;4.95;;
43628;SDS011;56545;48.224;11.678;2023-06-14T02:37:56;8.38;;;4.00;;
43628;SDS011;56545;48.224;11.678;2023-06-14T02:40:22;7.90;;;4.03;;
43628;SDS011;56545;48.224;11.678;2023-06-14T02:42:48;8.88;;;4.00;;
43628;SDS011;56545;48.224;11.678;2023-06-14T02:45:14;8.32;;;4.10;;
43628;SDS011;56545;48.224;11.678;2023-06-14T02:47:40;5.90;;;3.70;;
43628;SDS011;56545;48.224;11.678;2023-06-14T02:50:06;6.88;;;3.80;;
43628;SDS011;56545;48.224;11.678;2023-06-14T02:52:33;9.13;;;4.22;;
43628;SDS011;56545;48.224;11.678;2023-06-14T02:54:59;9.95;;;4.03;;
43628;SDS011;56545;48.224;11.678;2023-06-14T02:57:25;7.10;;;3.97;;
43628;SDS011;56545;48.224;11.678;2023-06-14T02:59:51;7.47;;;4.20;;
43628;SDS011;56545;48.224;11.678;2023-06-14T03:02:17;7.50;;;4.15;;
43628;SDS011;56545;48.224;11.678;2023-06-14T03:04:43;8.02;;;4.53;;
43628;SDS011;56545;48.224;11.678;2023-06-14T03:07:11;7.82;;;4.38;;
43628;SDS011;56545;48.224;11.678;2023-06-14T03:09:38;9.55;;;4.72;;
43628;SDS011;56545;48.224;11.678;2023-06-14T03:12:04;8.32;;;4.93;;
43628;SDS011;56545;48.224;11.678;2023-06-14T03:14:35;8.57;;;4.90;;
43628;SDS011;56545;48.224;11.678;2023-06-14T03:17:01;8.65;;;4.95;;
43628;SDS011;56545;48.224;11.678;2023-06-14T03:19:27;8.70;;;4.63;;
43628;SDS011;56545;48.224;11.678;2023-06-14T03:21:53;8.23;;;4.78;;
43628;SDS011;56545;48.224;11.678;2023-06-14T03:24:21;10.38;;;5.25;;
43628;SDS011;56545;48.224;11.678;2023-06-14T03:26:48;11.60;;;4.80;;
43628;SDS011;56545;48.224;11.678;2023-06-14T03:29:14;9.85;;;5.10;;
43628;SDS011;56545;48.224;11.678;2023-06-14T03:31:55;8.50;;;4.80;;
43628;SDS011;56545;48.224;11.678;2023-06-14T03:34:23;8.80;;;4.57;;
43628;SDS011;56545;48.224;11.678;2023-06-14T03:36:49;8.60;;;4.68;;
43628;SDS011;56545;48.224;11.678;2023-06-14T03:39:14;8.90;;;4.90;;
43628;SDS011;56545;48.224;11.678;2023-06-14T03:41:40;10.15;;;4.65;;
43628;SDS011;56545;48.224;11.678;2023-06-14T03:44:06;9.27;;;4.55;;
43628;SDS011;56545;48.224;11.678;2023-06-14T03:46:32;8.15;;;4.55;;
43628;SDS011;56545;48.224;11.678;2023-06-14T03:48:58;8.30;;;4.53;;
43628;SDS011;56545;48.224;11.678;2023-06-14T03:51:25;7.15;;;4.28;;
43628;SDS011;56545;48.224;11.678;2023-06-14T03:53:51;8.85;;;4.57;;
43628;SDS011;56545;48.224;11.678;2023-06-14T03:56:17;7.25;;;4.15;;
43628;SDS011;56545;48.224;11.678;2023-06-14T03:58:54;9.13;;;4.22;;
43628;SDS011;56545;48.224;11.678;2023-06-14T04:01:20;6.32;;;3.92;;
43628;SDS011;56545;48.224;11.678;2023-06-14T04:03:46;9.50;;;4.47;;
43628;SDS011;56545;48.224;11.678;2023-06-14T04:06:12;8.55;;;4.07;;
43628;SDS011;56545;48.224;11.678;2023-06-14T04:08:44;7.07;;;4.27;;
43628;SDS011;56545;48.224;11.678;2023-06-14T04:11:10;9.52;;;4.43;;
43628;SDS011;56545;48.224;11.678;2023-06-14T04:13:36;7.68;;;4.57;;
43628;SDS011;56545;48.224;11.678;2023-06-14T04:16:04;8.30;;;4.35;;
43628;SDS011;56545;48.224;11.678;2023-06-14T04:18:30;10.27;;;4.38;;
43628;SDS011;56545;48.224;11.678;2023-06-14T04:20:56;10.05;;;4.55;;
43628;SDS011;56545;48.224;11.678;2023-06-14T04:23:22;11.82;;;4.82;;
43628;SDS011;56545;48.224;11.678;2023-06-14T04:25:48;7.45;;;4.05;;
43628;SDS011;56545;48.224;11.678;2023-06-14T04:28:14;8.00;;;4.00;;
43628;SDS011;56545;48.224;11.678;2023-06-14T04:30:41;8.23;;;4.10;;
43628;SDS011;56545;48.224;11.678;2023-06-14T04:33:07;8.50;;;4.10;;
43628;SDS011;56545;48.224;11.678;2023-06-14T04:35:34;9.10;;;4.15;;
43628;SDS011;56545;48.224;11.678;2023-06-14T04:38:02;8.07;;;4.65;;
43628;SDS011;56545;48.224;11.678;2023-06-14T04:40:30;7.95;;;4.35;;
43628;SDS011;56545;48.224;11.678;2023-06-14T04:42:58;9.98;;;4.55;;
43628;SDS011;56545;48.224;11.678;2023-06-14T04:45:24;9.80;;;4.50;;
43628;SDS011;56545;48.224;11.678;2023-06-14T04:47:56;7.68;;;4.13;;
43628;SDS011;56545;48.224;11.678;2023-06-14T04:50:24;7.15;;;4.18;;
43628;SDS011;56545;48.224;11.678;2023-06-14T04:52:50;9.18;;;4.35;;
43628;SDS011;56545;48.224;11.678;2023-06-14T04:55:18;7.55;;;4.20;;
43628;SDS011;56545;48.224;11.678;2023-06-14T04:57:44;9.00;;;4.15;;
43628;SDS011;56545;48.224;11.678;2023-06-14T05:00:10;7.55;;;4.60;;
43628;SDS011;56545;48.224;11.678;2023-06-14T05:02:37;8.48;;;4.10;;
43628;SDS011;56545;48.224;11.678;2023-06-14T05:05:03;8.30;;;4.15;;
43628;SDS011;56545;48.224;11.678;2023-06-14T05:07:32;7.15;;;4.10;;
43628;SDS011;56545;48.224;11.678;2023-06-14T05:10:01;7.78;;;4.10;;
43628;SDS011;56545;48.224;11.678;2023-06-14T05:12:27;7.78;;;4.22;;
43628;SDS011;56545;48.224;11.678;2023-06-14T05:14:54;10.77;;;4.30;;
43628;SDS011;56545;48.224;11.678;2023-06-14T05:17:20;10.98;;;4.70;;
43628;SDS011;56545;48.224;11.678;2023-06-14T05:19:46;8.88;;;4.50;;
43628;SDS011;56545;48.224;11.678;2023-06-14T05:22:11;10.13;;;4.43;;
43628;SDS011;56545;48.224;11.678;2023-06-14T05:24:37;12.32;;;4.75;;
43628;SDS011;56545;48.224;11.678;2023-06-14T05:27:03;11.70;;;4.70;;
43628;SDS011;56545;48.224;11.678;2023-06-14T05:29:30;12.13;;;4.50;;
43628;SDS011;56545;48.224;11.678;2023-06-14T05:31:56;8.45;;;4.53;;
43628;SDS011;56545;48.224;11.678;2023-06-14T05:34:22;12.23;;;4.60;;
43628;SDS011;56545;48.224;11.678;2023-06-14T05:36:48;13.82;;;4.85;;
43628;SDS011;56545;48.224;11.678;2023-06-14T05:39:14;10.23;;;4.32;;
43628;SDS011;56545;48.224;11.678;2023-06-14T05:41:39;9.80;;;4.30;;
43628;SDS011;56545;48.224;11.678;2023-06-14T05:44:05;7.63;;;4.30;;
43628;SDS011;56545;48.224;11.678;2023-06-14T05:46:32;13.02;;;4.40;;
43628;SDS011;56545;48.224;11.678;2023-06-14T05:48:58;10.60;;;4.50;;
43628;SDS011;56545;48.224;11.678;2023-06-14T05:51:24;8.55;;;4.47;;
43628;SDS011;56545;48.224;11.678;2023-06-14T05:53:50;8.10;;;4.18;;
43628;SDS011;56545;48.224;11.678;2023-06-14T05:56:16;7.95;;;4.47;;
43628;SDS011;56545;48.224;11.678;2023-06-14T05:58:43;7.90;;;4.00;;
43628;SDS011;56545;48.224;11.678;2023-06-14T06:01:10;7.88;;;3.78;;
43628;SDS011;56545;48.224;11.678;2023-06-14T06:03:36;6.82;;;3.60;;
43628;SDS011;56545;48.224;11.678;2023-06-14T06:06:02;8.57;;;4.05;;
43628;SDS011;56545;48.224;11.678;2023-06-14T06:08:28;8.88;;;4.13;;
43628;SDS011;56545;48.224;11.678;2023-06-14T06:10:55;10.77;;;3.97;;
43628;SDS011;56545;48.224;11.678;2023-06-14T06:13:21;16.60;;;11.13;;
43628;SDS011;56545;48.224;11.678;2023-06-14T06:15:47;9.80;;;4.32;;
43628;SDS011;56545;48.224;11.678;2023-06-14T06:18:13;9.35;;;4.22;;
43628;SDS011;56545;48.224;11.678;2023-06-14T06:20:39;13.30;;;3.60;;
43628;SDS011;56545;48.224;11.678;2023-06-14T06:23:05;6.63;;;3.53;;
43628;SDS011;56545;48.224;11.678;2023-06-14T06:25:32;7.30;;;3.90;;
43628;SDS011;56545;48.224;11.678;2023-06-14T06:27:59;6.28;;;3.78;;
43628;SDS011;56545;48.224;11.678;2023-06-14T06:30:25;9.07;;;3.50;;
43628;SDS011;56545;48.224;11.678;2023-06-14T06:32:51;7.80;;;3.85;;
43628;SDS011;56545;48.224;11.678;2023-06-14T06:35:18;7.15;;;3.40;;
43628;SDS011;56545;48.224;11.678;2023-06-14T06:37:44;9.70;;;3.50;;
43628;SDS011;56545;48.224;11.678;2023-06-14T06:40:09;6.93;;;3.00;;
43628;SDS011;56545;48.224;11.678;2023-06-14T06:42:36;9.32;;;3.67;;
43628;SDS011;56545;48.224;11.678;2023-06-14T06:45:02;8.07;;;3.38;;
43628;SDS011;56545;48.224;11.678;2023-06-14T06:47:28;7.53;;;3.65;;
43628;SDS011;56545;48.224;11.678;2023-06-14T06:49:54;8.18;;;3.58;;
43628;SDS011;56545;48.224;11.678;2023-06-14T06:52:20;8.20;;;3.60;;
43628;SDS011;56545;48.224;11.678;2023-06-14T06:54:46;9.32;;;3.00;;
43628;SDS011;56545;48.224;11.678;2023-06-14T06:57:12;14.65;;;7.57;;
43628;SDS011;56545;48.224;11.678;2023-06-14T06:59:38;7.03;;;3.58;;
43628;SDS011;56545;48.224;11.678;2023-06-14T07:02:04;9.80;;;3.35;;
43628;SDS011;56545;48.224;11.678;2023-06-14T07:04:30;7.28;;;3.65;;
43628;SDS011;56545;48.224;11.678;2023-06-14T07:06:56;8.48;;;3.35;;
43628;SDS011;56545;48.224;11.678;2023-06-14T07:09:22;7.63;;;3.42;;
43628;SDS011;56545;48.224;11.678;2023-06-14T07:11:49;12.35;;;4.13;;
43628;SDS011;56545;48.224;11.678;2023-06-14T07:14:15;7.28;;;3.15;;
43628;SDS011;56545;48.224;11.678;2023-06-14T07:16:41;7.70;;;3.35;;
43628;SDS011;56545;48.224;11.678;2023-06-14T07:19:08;7.18;;;3.30;;
43628;SDS011;56545;48.224;11.678;2023-06-14T07:21:34;5.65;;;3.20;;
43628;SDS011;56545;48.224;11.678;2023-06-14T07:24:02;5.93;;;2.85;;
43628;SDS011;56545;48.224;11.678;2023-06-14T07:26:29;6.78;;;2.83;;
43628;SDS011;56545;48.224;11.678;2023-06-14T07:28:55;6.13;;;3.28;;
43628;SDS011;56545;48.224;11.678;2023-06-14T07:31:21;9.65;;;3.00;;
43628;SDS011;56545;48.224;11.678;2023-06-14T07:33:47;5.97;;;2.83;;
43628;SDS011;56545;48.224;11.678;2023-06-14T07:36:13;6.63;;;2.70;;
43628;SDS011;56545;48.224;11.678;2023-06-14T07:38:39;5.53;;;3.13;;
43628;SDS011;56545;48.224;11.678;2023-06-14T07:41:05;5.68;;;3.00;;
43628;SDS011;56545;48.224;11.678;2023-06-14T07:43:32;6.97;;;3.20;;
43628;SDS011;56545;48.224;11.678;2023-06-14T07:45:58;6.97;;;2.80;;
43628;SDS011;56545;48.224;11.678;2023-06-14T07:48:24;6.00;;;2.72;;
43628;SDS011;56545;48.224;11.678;2023-06-14T07:50:49;7.28;;;2.95;;
43628;SDS011;56545;48.224;11.678;2023-06-14T07:53:15;5.95;;;2.83;;
43628;SDS011;56545;48.224;11.678;2023-06-14T07:55:41;4.70;;;2.40;;
43628;SDS011;56545;48.224;11.678;2023-06-14T07:58:08;5.18;;;2.90;;
43628;SDS011;56545;48.224;11.678;2023-06-14T08:00:35;6.90;;;2.50;;
43628;SDS011;56545;48.224;11.678;2023-06-14T08:03:01;5.25;;;2.78;;
43628;SDS011;56545;48.224;11.678;2023-06-14T08:05:28;8.73;;;2.97;;
43628;SDS011;56545;48.224;11.678;2023-06-14T08:07:54;7.15;;;3.00;;
43628;SDS011;56545;48.224;11.678;2023-06-14T08:10:20;7.32;;;2.70;;
43628;SDS011;56545;48.224;11.678;2023-06-14T08:12:47;5.78;;;2.40;;
43628;SDS011;56545;48.224;11.678;2023-06-14T08:15:16;6.07;;;2.50;;
43628;SDS011;56545;48.224;11.678;2023-06-14T08:17:43;7.07;;;2.70;;
43628;SDS011;56545;48.224;11.678;2023-06-14T08:20:09;4.93;;;2.35;;
43628;SDS011;56545;48.224;11.678;2023-06-14T08:22:36;6.55;;;2.92;;
43628;SDS011;56545;48.224;11.678;2023-06-14T08:25:02;6.20;;;2.72;;
43628;SDS011;56545;48.224;11.678;2023-06-14T08:27:29;6.43;;;2.25;;
43628;SDS011;56545;48.224;11.678;2023-06-14T08:29:56;5.88;;;2.50;;
43628;SDS011;56545;48.224;11.678;2023-06-14T08:32:22;7.25;;;2.80;;
43628;SDS011;56545;48.224;11.678;2023-06-14T08:34:48;7.22;;;2.47;;
43628;SDS011;56545;48.224;11.678;2023-06-14T08:37:14;5.20;;;2.58;;
43628;SDS011;56545;48.224;11.678;2023-06-14T08:39:40;8.55;;;2.60;;
43628;SDS011;56545;48.224;11.678;2023-06-14T08:42:07;4.57;;;2.35;;
43628;SDS011;56545;48.224;11.678;2023-06-14T08:44:33;6.20;;;2.40;;
43628;SDS011;56545;48.224;11.678;2023-06-14T08:46:59;5.95;;;2.63;;
43628;SDS011;56545;48.224;11.678;2023-06-14T08:49:26;7.65;;;2.60;;
43628;SDS011;56545;48.224;11.678;2023-06-14T08:51:54;7.88;;;2.75;;
43628;SDS011;56545;48.224;11.678;2023-06-14T08:54:27;6.40;;;2.90;;
43628;SDS011;56545;48.224;11.678;2023-06-14T08:56:57;5.60;;;2.45;;
43628;SDS011;56545;48.224;11.678;2023-06-14T08:59:24;5.97;;;2.80;;
43628;SDS011;56545;48.224;11.678;2023-06-14T09:01:51;5.38;;;2.28;;
43628;SDS011;56545;48.224;11.678;2023-06-14T09:04:19;7.35;;;2.75;;
43628;SDS011;56545;48.224;11.678;2023-06-14T09:06:46;5.60;;;2.70;;
43628;SDS011;56545;48.224;11.678;2023-06-14T09:09:18;6.60;;;2.88;;
43628;SDS011;56545;48.224;11.678;2023-06-14T09:11:45;6.13;;;2.47;;
43628;SDS011;56545;48.224;11.678;2023-06-14T09:14:11;5.88;;;3.00;;
43628;SDS011;56545;48.224;11.678;2023-06-14T09:16:37;6.95;;;2.70;;
43628;SDS011;56545;48.224;11.678;2023-06-14T09:19:03;4.65;;;2.50;;
43628;SDS011;56545;48.224;11.678;2023-06-14T09:21:29;6.43;;;2.70;;
43628;SDS011;56545;48.224;11.678;2023-06-14T09:24:01;5.63;;;2.40;;
43628;SDS011;56545;48.224;11.678;2023-06-14T09:26:27;6.82;;;2.72;;
43628;SDS011;56545;48.224;11.678;2023-06-14T09:28:54;10.32;;;3.00;;
43628;SDS011;56545;48.224;11.678;2023-06-14T09:31:20;6.55;;;2.85;;
43628;SDS011;56545;48.224;11.678;2023-06-14T09:33:50;5.43;;;2.63;;
43628;SDS011;56545;48.224;11.678;2023-06-14T09:36:17;4.22;;;2.13;;
43628;SDS011;56545;48.224;11.678;2023-06-14T09:38:52;5.45;;;2.55;;
43628;SDS011;56545;48.224;11.678;2023-06-14T09:41:19;5.25;;;2.17;;
43628;SDS011;56545;48.224;11.678;2023-06-14T09:43:46;5.55;;;2.60;;
43628;SDS011;56545;48.224;11.678;2023-06-14T09:46:12;5.70;;;2.30;;
43628;SDS011;56545;48.224;11.678;2023-06-14T09:48:38;5.85;;;2.33;;
43628;SDS011;56545;48.224;11.678;2023-06-14T09:51:08;7.18;;;2.55;;
43628;SDS011;56545;48.224;11.678;2023-06-14T09:53:35;5.63;;;2.53;;
43628;SDS011;56545;48.224;11.678;2023-06-14T09:56:02;6.82;;;2.60;;
43628;SDS011;56545;48.224;11.678;2023-06-14T09:58:30;5.38;;;2.50;;
43628;SDS011;56545;48.224;11.678;2023-06-14T10:01:00;6.18;;;2.40;;
43628;SDS011;56545;48.224;11.678;2023-06-14T10:03:27;5.70;;;2.47;;
43628;SDS011;56545;48.224;11.678;2023-06-14T10:05:55;6.65;;;2.53;;
43628;SDS011;56545;48.224;11.678;2023-06-14T10:08:27;5.75;;;2.72;;
43628;SDS011;56545;48.224;11.678;2023-06-14T10:10:55;6.50;;;2.65;;
43628;SDS011;56545;48.224;11.678;2023-06-14T10:13:21;12.30;;;7.45;;
43628;SDS011;56545;48.224;11.678;2023-06-14T10:18:50;6.07;;;2.60;;
43628;SDS011;56545;48.224;11.678;2023-06-14T10:24:17;4.95;;;2.67;;
43628;SDS011;56545;48.224;11.678;2023-06-14T10:26:53;5.07;;;2.72;;
43628;SDS011;56545;48.224;11.678;2023-06-14T10:29:21;4.38;;;2.20;;
43628;SDS011;56545;48.224;11.678;2023-06-14T10:31:48;6.20;;;2.60;;
43628;SDS011;56545;48.224;11.678;2023-06-14T10:34:22;6.35;;;2.45;;
43628;SDS011;56545;48.224;11.678;2023-06-14T10:36:59;5.43;;;2.40;;
43628;SDS011;56545;48.224;11.678;2023-06-14T10:39:29;7.25;;;2.50;;
43628;SDS011;56545;48.224;11.678;2023-06-14T10:41:56;6.95;;;2.70;;
43628;SDS011;56545;48.224;11.678;2023-06-14T10:46:49;4.95;;;2.38;;
43628;SDS011;56545;48.224;11.678;2023-06-14T10:49:20;5.68;;;2.67;;
43628;SDS011;56545;48.224;11.678;2023-06-14T10:52:08;6.47;;;2.63;;
43628;SDS011;56545;48.224;11.678;2023-06-14T10:57:53;5.68;;;2.70;;
43628;SDS011;56545;48.224;11.678;2023-06-14T11:00:24;5.05;;;2.65;;
43628;SDS011;56545;48.224;11.678;2023-06-14T11:05:40;5.13;;;2.67;;
43628;SDS011;56545;48.224;11.678;2023-06-14T11:11:02;7.85;;;2.88;;
43628;SDS011;56545;48.224;11.678;2023-06-14T11:13:32;5.93;;;2.80;;
43628;SDS011;56545;48.224;11.678;2023-06-14T11:15:58;6.97;;;2.75;;
43628;SDS011;56545;48.224;11.678;2023-06-14T11:18:24;6.00;;;2.50;;
43628;SDS011;56545;48.224;11.678;2023-06-14T11:20:52;6.18;;;2.78;;
43628;SDS011;56545;48.224;11.678;2023-06-14T11:23:18;5.22;;;2.58;;
43628;SDS011;56545;48.224;11.678;2023-06-14T11:25:51;6.50;;;3.65;;
43628;SDS011;56545;48.224;11.678;2023-06-14T11:28:17;7.70;;;3.97;;
43628;SDS011;56545;48.224;11.678;2023-06-14T11:30:45;6.80;;;2.65;;
43628;SDS011;56545;48.224;11.678;2023-06-14T11:33:11;4.82;;;2.80;;
43628;SDS011;56545;48.224;11.678;2023-06-14T11:35:43;4.88;;;2.35;;
43628;SDS011;56545;48.224;11.678;2023-06-14T11:38:10;4.80;;;2.30;;
43628;SDS011;56545;48.224;11.678;2023-06-14T11:40:37;5.85;;;2.47;;
43628;SDS011;56545;48.224;11.678;2023-06-14T11:43:03;4.50;;;2.58;;
43628;SDS011;56545;48.224;11.678;2023-06-14T11:45:30;5.80;;;2.45;;
43628;SDS011;56545;48.224;11.678;2023-06-14T11:47:56;5.43;;;2.65;;
43628;SDS011;56545;48.224;11.678;2023-06-14T11:50:23;5.70;;;2.88;;
43628;SDS011;56545;48.224;11.678;2023-06-14T11:52:53;7.38;;;2.85;;
43628;SDS011;56545;48.224;11.678;2023-06-14T11:55:20;5.00;;;2.67;;
43628;SDS011;56545;48.224;11.678;2023-06-14T11:57:47;6.47;;;2.75;;
43628;SDS011;56545;48.224;11.678;2023-06-14T12:00:13;4.50;;;2.58;;
43628;SDS011;56545;48.224;11.678;2023-06-14T12:02:40;7.43;;;2.65;;
43628;SDS011;56545;48.224;11.678;2023-06-14T12:05:07;5.15;;;2.30;;
43628;SDS011;56545;48.224;11.678;2023-06-14T12:07:35;7.82;;;2.80;;
43628;SDS011;56545;48.224;11.678;2023-06-14T12:12:34;5.65;;;2.70;;
43628;SDS011;56545;48.224;11.678;2023-06-14T12:15:02;6.47;;;2.70;;
43628;SDS011;56545;48.224;11.678;2023-06-14T12:17:33;5.35;;;2.80;;
43628;SDS011;56545;48.224;11.678;2023-06-14T12:20:04;5.43;;;2.47;;
43628;SDS011;56545;48.224;11.678;2023-06-14T12:22:51;7.22;;;2.80;;
43628;SDS011;56545;48.224;11.678;2023-06-14T12:25:34;6.60;;;2.92;;
43628;SDS011;56545;48.224;11.678;2023-06-14T12:28:04;5.70;;;2.58;;
43628;SDS011;56545;48.224;11.678;2023-06-14T12:30:31;5.05;;;2.72;;
43628;SDS011;56545;48.224;11.678;2023-06-14T12:32:57;5.22;;;2.40;;
43628;SDS011;56545;48.224;11.678;2023-06-14T12:35:23;6.20;;;3.17;;
43628;SDS011;56545;48.224;11.678;2023-06-14T12:37:49;6.57;;;3.28;;
43628;SDS011;56545;48.224;11.678;2023-06-14T12:40:15;7.90;;;3.10;;
43628;SDS011;56545;48.224;11.678;2023-06-14T12:42:41;6.63;;;2.70;;
43628;SDS011;56545;48.224;11.678;2023-06-14T12:45:07;6.32;;;2.35;;
43628;SDS011;56545;48.224;11.678;2023-06-14T12:47:35;5.38;;;2.35;;
43628;SDS011;56545;48.224;11.678;2023-06-14T12:50:01;5.80;;;2.72;;
43628;SDS011;56545;48.224;11.678;2023-06-14T12:52:27;6.15;;;2.85;;
43628;SDS011;56545;48.224;11.678;2023-06-14T12:54:53;5.72;;;2.85;;
43628;SDS011;56545;48.224;11.678;2023-06-14T12:57:19;4.93;;;2.80;;
43628;SDS011;56545;48.224;11.678;2023-06-14T12:59:45;9.88;;;2.83;;
43628;SDS011;56545;48.224;11.678;2023-06-14T13:02:15;4.90;;;2.60;;
43628;SDS011;56545;48.224;11.678;2023-06-14T13:04:42;6.05;;;2.80;;
43628;SDS011;56545;48.224;11.678;2023-06-14T13:07:08;10.60;;;3.38;;
43628;SDS011;56545;48.224;11.678;2023-06-14T13:09:36;15.05;;;3.78;;
43628;SDS011;56545;48.224;11.678;2023-06-14T13:12:02;12.63;;;3.83;;
43628;SDS011;56545;48.224;11.678;2023-06-14T13:14:28;6.45;;;2.70;;
43628;SDS011;56545;48.224;11.678;2023-06-14T13:16:54;6.97;;;2.70;;
43628;SDS011;56545;48.224;11.678;2023-06-14T13:19:21;5.82;;;2.90;;
43628;SDS011;56545;48.224;11.678;2023-06-14T13:21:47;5.72;;;2.53;;
43628;SDS011;56545;48.224;11.678;2023-06-14T13:24:14;5.28;;;2.70;;
43628;SDS011;56545;48.224;11.678;2023-06-14T13:26:40;7.47;;;2.67;;
43628;SDS011;56545;48.224;11.678;2023-06-14T13:29:06;5.55;;;3.03;;
43628;SDS011;56545;48.224;11.678;2023-06-14T13:31:32;8.35;;;5.55;;
43628;SDS011;56545;48.224;11.678;2023-06-14T13:33:58;7.78;;;2.78;;
43628;SDS011;56545;48.224;11.678;2023-06-14T13:36:24;4.32;;;2.60;;
43628;SDS011;56545;48.224;11.678;2023-06-14T13:38:49;4.80;;;2.70;;
43628;SDS011;56545;48.224;11.678;2023-06-14T13:41:17;5.68;;;2.80;;
43628;SDS011;56545;48.224;11.678;2023-06-14T13:43:43;6.32;;;2.90;;
43628;SDS011;56545;48.224;11.678;2023-06-14T13:46:09;5.30;;;2.63;;
43628;SDS011;56545;48.224;11.678;2023-06-14T13:48:35;4.85;;;2.38;;
43628;SDS011;56545;48.224;11.678;2023-06-14T13:51:01;4.40;;;2.63;;
43628;SDS011;56545;48.224;11.678;2023-06-14T13:53:29;8.00;;;2.78;;
43628;SDS011;56545;48.224;11.678;2023-06-14T13:55:55;6.10;;;2.35;;
43628;SDS011;56545;48.224;11.678;2023-06-14T13:58:21;5.10;;;2.65;;
43628;SDS011;56545;48.224;11.678;2023-06-14T14:00:48;4.50;;;2.33;;
43628;SDS011;56545;48.224;11.678;2023-06-14T14:03:14;5.35;;;2.40;;
43628;SDS011;56545;48.224;11.678;2023-06-14T14:05:40;5.47;;;2.55;;
43628;SDS011;56545;48.224;11.678;2023-06-14T14:08:06;5.63;;;2.67;;
43628;SDS011;56545;48.224;11.678;2023-06-14T14:10:32;5.65;;;2.38;;
43628;SDS011;56545;48.224;11.678;2023-06-14T14:12:58;6.45;;;2.70;;
43628;SDS011;56545;48.224;11.678;2023-06-14T14:15:24;5.20;;;2.70;;
43628;SDS011;56545;48.224;11.678;2023-06-14T14:17:50;5.13;;;2.45;;
43628;SDS011;56545;48.224;11.678;2023-06-14T14:20:18;5.38;;;2.53;;
43628;SDS011;56545;48.224;11.678;2023-06-14T14:22:44;6.53;;;2.40;;
43628;SDS011;56545;48.224;11.678;2023-06-14T14:25:10;4.68;;;2.47;;
43628;SDS011;56545;48.224;11.678;2023-06-14T14:27:36;5.35;;;2.50;;
43628;SDS011;56545;48.224;11.678;2023-06-14T14:30:03;6.03;;;2.80;;
43628;SDS011;56545;48.224;11.678;2023-06-14T14:32:29;8.93;;;2.83;;
43628;SDS011;56545;48.224;11.678;2023-06-14T14:34:55;6.95;;;4.15;;
43628;SDS011;56545;48.224;11.678;2023-06-14T14:37:21;6.30;;;2.70;;
43628;SDS011;56545;48.224;11.678;2023-06-14T14:39:47;6.28;;;2.70;;
43628;SDS011;56545;48.224;11.678;2023-06-14T14:42:13;5.50;;;2.80;;
43628;SDS011;56545;48.224;11.678;2023-06-14T14:44:39;5.85;;;2.50;;
43628;SDS011;56545;48.224;11.678;2023-06-14T14:47:05;5.40;;;2.33;;
43628;SDS011;56545;48.224;11.678;2023-06-14T14:49:31;5.22;;;2.60;;
43628;SDS011;56545;48.224;11.678;2023-06-14T14:51:57;6.32;;;2.50;;
43628;SDS011;56545;48.224;11.678;2023-06-14T14:54:23;6.18;;;2.75;;
43628;SDS011;56545;48.224;11.678;2023-06-14T14:56:50;5.57;;;2.55;;
43628;SDS011;56545;48.224;11.678;2023-06-14T14:59:16;5.43;;;2.50;;